Time;durP1;ratioP1;P1;durP2;ratioP2;P2;SDS_P1;SDS_P2;PMS_P1;PMS_P2;Temp;Humidity;BMP_temperature;BMP_pressure;BME280_temperature;BME280_humidity;BME280_pressure;Samples;Min_cycle;Max_cycle;Signal;HPM_P1;HPM_P2
2022/10/20 00:01:26;;;;;;;14.65;8.63;;;11.10;99.90;;;;;;4736418;30;20449;-72
2022/10/20 00:03:53;;;;;;;15.40;8.25;;;11.10;99.90;;;;;;4736581;30;20511;-72
2022/10/20 00:06:21;;;;;;;16.92;8.38;;;11.20;99.90;;;;;;4736720;30;20029;-72
2022/10/20 00:08:48;;;;;;;14.60;8.70;;;11.20;99.90;;;;;;4736594;30;20655;-72
2022/10/20 00:11:17;;;;;;;15.27;9.43;;;11.20;99.90;;;;;;4736840;30;20032;-72
2022/10/20 00:13:44;;;;;;;16.42;8.55;;;11.20;99.90;;;;;;4736656;30;20079;-73
2022/10/20 00:16:11;;;;;;;15.63;9.40;;;11.20;99.90;;;;;;4736701;30;20060;-73
2022/10/20 00:18:37;;;;;;;20.73;10.23;;;11.20;99.90;;;;;;4736595;30;20037;-72
2022/10/20 00:21:08;;;;;;;15.85;8.27;;;11.30;99.90;;;;;;4736517;30;20028;-71
2022/10/20 00:23:35;;;;;;;16.05;8.02;;;11.30;99.90;;;;;;4736651;30;20033;-71
2022/10/20 00:26:16;;;;;;;17.75;8.88;;;11.40;99.90;;;;;;4736415;30;20033;-71
2022/10/20 00:28:42;;;;;;;14.23;8.02;;;11.50;99.90;;;;;;4720589;30;20051;-72
2022/10/20 00:31:08;;;;;;;15.60;8.82;;;11.50;99.90;;;;;;4735737;30;20101;-75
2022/10/20 00:33:34;;;;;;;15.32;8.57;;;11.50;99.90;;;;;;4736555;30;20036;-72
2022/10/20 00:36:02;;;;;;;15.55;8.35;;;11.50;99.90;;;;;;4736227;30;20074;-72
2022/10/20 00:38:28;;;;;;;15.65;9.18;;;11.50;99.90;;;;;;4736096;30;20126;-72
2022/10/20 00:40:54;;;;;;;14.55;8.23;;;11.50;99.90;;;;;;4736475;30;20041;-72
2022/10/20 00:43:20;;;;;;;15.52;7.88;;;11.40;99.90;;;;;;4736296;30;20477;-74
2022/10/20 00:45:56;;;;;;;13.80;8.45;;;11.40;99.90;;;;;;4736279;30;20436;-73
2022/10/20 00:48:27;;;;;;;16.08;9.43;;;11.40;99.90;;;;;;4736004;30;20028;-72
2022/10/20 00:50:55;;;;;;;12.18;7.15;;;11.40;99.90;;;;;;4736074;30;20052;-72
2022/10/20 00:53:26;;;;;;;14.65;8.23;;;11.40;99.90;;;;;;4735902;30;20060;-73
2022/10/20 00:55:54;;;;;;;14.02;8.30;;;11.30;99.90;;;;;;4736016;30;20041;-71
2022/10/20 00:58:20;;;;;;;13.23;7.47;;;11.10;99.90;;;;;;4735553;30;20036;-72
2022/10/20 01:00:49;;;;;;;14.93;8.95;;;11.10;99.90;;;;;;4735955;30;20037;-75
2022/10/20 01:03:45;;;;;;;16.52;9.07;;;10.90;99.90;;;;;;4735575;30;20033;-71
2022/10/20 01:06:13;;;;;;;13.90;8.07;;;10.90;99.90;;;;;;4735066;30;20044;-71
2022/10/20 01:08:40;;;;;;;17.10;8.55;;;10.90;99.90;;;;;;4735658;30;20029;-72
2022/10/20 01:11:12;;;;;;;15.02;8.50;;;10.80;99.90;;;;;;4735687;30;20053;-73
2022/10/20 01:14:16;;;;;;;15.23;8.38;;;10.70;99.90;;;;;;4735425;30;20068;-71
2022/10/20 01:16:41;;;;;;;13.20;8.15;;;10.60;99.90;;;;;;4735712;30;20512;-71
2022/10/20 01:19:22;;;;;;;14.30;7.72;;;10.60;99.90;;;;;;4735456;30;20076;-72
2022/10/20 01:22:12;;;;;;;14.48;7.95;;;10.50;99.90;;;;;;4735483;30;20119;-70
2022/10/20 01:25:00;;;;;;;16.83;9.15;;;10.40;99.90;;;;;;4735380;30;20063;-73
2022/10/20 01:27:36;;;;;;;16.92;7.60;;;10.40;99.90;;;;;;4735403;30;20043;-72
2022/10/20 01:30:20;;;;;;;16.23;8.90;;;10.40;99.90;;;;;;4735487;30;20405;-71
2022/10/20 01:33:30;;;;;;;18.88;7.97;;;10.30;99.90;;;;;;4735271;30;20037;-71
2022/10/20 01:36:09;;;;;;;15.10;8.55;;;10.30;99.90;;;;;;4715705;30;20045;-71
2022/10/20 01:38:59;;;;;;;15.90;8.18;;;10.20;99.90;;;;;;4715778;30;20045;-72
2022/10/20 01:41:33;;;;;;;22.42;8.80;;;10.20;99.90;;;;;;4715675;30;20041;-72
2022/10/20 01:44:04;;;;;;;13.93;7.30;;;10.20;99.90;;;;;;4715514;30;20414;-72
2022/10/20 01:46:31;;;;;;;13.18;7.18;;;10.10;99.90;;;;;;4715865;30;20123;-72
2022/10/20 01:49:01;;;;;;;14.52;8.02;;;10.10;99.90;;;;;;4715118;30;20041;-73
2022/10/20 01:51:26;;;;;;;17.30;7.38;;;10.10;99.90;;;;;;4715276;30;20086;-72
2022/10/20 01:53:52;;;;;;;14.35;8.02;;;10.10;99.90;;;;;;4715672;30;20040;-71
2022/10/20 01:56:33;;;;;;;14.50;8.38;;;10.10;99.90;;;;;;4715472;30;20489;-71
2022/10/20 01:59:38;;;;;;;17.58;10.27;;;10.10;99.90;;;;;;4715063;30;20551;-71
2022/10/20 02:02:24;;;;;;;15.02;8.25;;;10.00;99.90;;;;;;4715193;30;20033;-72
2022/10/20 02:04:50;;;;;;;17.70;9.70;;;9.90;99.90;;;;;;4715291;30;20397;-72
2022/10/20 02:07:28;;;;;;;15.32;8.73;;;9.90;99.90;;;;;;4702964;30;20168;-71
2022/10/20 02:10:11;;;;;;;14.93;8.75;;;9.80;99.90;;;;;;4724959;30;20505;-72
2022/10/20 02:12:40;;;;;;;18.48;9.75;;;9.80;99.90;;;;;;4734754;30;20033;-71
2022/10/20 02:15:09;;;;;;;19.25;10.00;;;9.80;99.90;;;;;;4734870;30;20090;-72
2022/10/20 02:17:39;;;;;;;24.02;9.57;;;9.70;99.90;;;;;;4734382;30;20408;-72
2022/10/20 02:20:07;;;;;;;18.52;10.15;;;9.70;99.90;;;;;;4734615;30;20119;-71
2022/10/20 02:22:33;;;;;;;18.10;10.73;;;9.60;99.90;;;;;;4734387;30;20039;-73
2022/10/20 02:24:59;;;;;;;18.48;11.90;;;9.60;99.90;;;;;;4734536;30;20401;-72
2022/10/20 02:27:31;;;;;;;19.40;10.80;;;9.50;99.90;;;;;;4734272;30;20399;-71
2022/10/20 02:30:04;;;;;;;16.17;10.68;;;9.50;99.90;;;;;;4734514;30;20048;-73
2022/10/20 02:32:32;;;;;;;16.77;9.52;;;9.50;99.90;;;;;;4734694;30;20033;-71
2022/10/20 02:34:59;;;;;;;20.75;10.85;;;9.40;99.90;;;;;;4734381;30;20111;-71
2022/10/20 02:37:24;;;;;;;16.65;10.32;;;9.50;99.90;;;;;;4734421;30;20103;-71
2022/10/20 02:39:50;;;;;;;17.73;10.82;;;9.40;99.90;;;;;;4734119;30;20116;-70
2022/10/20 02:42:16;;;;;;;17.23;10.77;;;9.40;99.90;;;;;;4734265;30;20035;-72
2022/10/20 02:44:42;;;;;;;19.20;10.57;;;9.40;99.90;;;;;;4734288;30;20040;-71
2022/10/20 02:47:08;;;;;;;18.08;10.13;;;9.30;99.90;;;;;;4734525;30;20094;-72
2022/10/20 02:49:34;;;;;;;16.58;10.55;;;9.30;99.90;;;;;;4734187;30;20180;-72
2022/10/20 02:52:00;;;;;;;18.48;10.55;;;9.30;99.90;;;;;;4734240;30;20056;-71
2022/10/20 02:54:27;;;;;;;21.08;11.32;;;9.20;99.90;;;;;;4734192;30;20036;-73
2022/10/20 02:56:54;;;;;;;16.75;9.18;;;9.20;99.90;;;;;;4734114;30;20029;-72
2022/10/20 02:59:20;;;;;;;18.38;9.13;;;9.20;99.90;;;;;;4733840;30;20053;-71
2022/10/20 03:01:46;;;;;;;17.23;9.50;;;9.20;99.90;;;;;;4733584;30;20127;-74
2022/10/20 03:04:12;;;;;;;19.52;9.05;;;9.20;99.90;;;;;;4733918;30;20037;-72
2022/10/20 03:06:39;;;;;;;16.45;9.23;;;9.20;99.90;;;;;;4733805;30;20098;-71
2022/10/20 03:09:05;;;;;;;16.73;9.57;;;9.10;99.90;;;;;;4733735;30;20033;-71
2022/10/20 03:11:31;;;;;;;15.95;8.93;;;9.10;99.90;;;;;;4733850;30;20116;-71
2022/10/20 03:13:57;;;;;;;18.65;7.85;;;9.00;99.90;;;;;;4733767;30;20033;-71
2022/10/20 03:16:23;;;;;;;15.63;9.00;;;9.10;99.90;;;;;;4733693;30;20037;-72
2022/10/20 03:18:48;;;;;;;17.83;9.05;;;9.00;99.90;;;;;;4733479;30;20477;-71
2022/10/20 03:21:14;;;;;;;18.00;10.05;;;8.90;99.90;;;;;;4733846;30;20032;-72
2022/10/20 03:23:40;;;;;;;16.40;9.20;;;9.00;99.90;;;;;;4733674;30;20442;-72
2022/10/20 03:26:09;;;;;;;17.70;9.30;;;8.90;99.90;;;;;;4733746;30;20491;-71
2022/10/20 03:28:34;;;;;;;16.83;8.80;;;8.80;99.90;;;;;;4733499;30;20041;-72
2022/10/20 03:31:00;;;;;;;16.00;9.13;;;8.80;99.90;;;;;;4733534;30;20068;-71
2022/10/20 03:33:26;;;;;;;14.02;8.18;;;8.80;99.90;;;;;;4733741;30;20037;-73
2022/10/20 03:35:52;;;;;;;15.95;8.00;;;8.70;99.90;;;;;;4733580;30;20049;-71
2022/10/20 03:38:18;;;;;;;18.73;8.63;;;8.70;99.90;;;;;;4733814;30;20029;-70
2022/10/20 03:40:44;;;;;;;15.32;7.85;;;8.70;99.90;;;;;;4733681;30;20032;-70
2022/10/20 03:43:10;;;;;;;18.40;9.45;;;8.70;99.90;;;;;;4733725;30;20424;-71
2022/10/20 03:45:36;;;;;;;17.40;9.38;;;8.70;99.90;;;;;;4733986;30;20037;-71
2022/10/20 03:48:01;;;;;;;16.50;8.82;;;8.60;99.90;;;;;;4733629;30;20396;-72
2022/10/20 03:50:27;;;;;;;17.40;9.77;;;8.60;99.90;;;;;;4733532;30;20126;-71
2022/10/20 03:52:54;;;;;;;16.85;8.30;;;8.60;99.90;;;;;;4733793;30;20032;-73
2022/10/20 03:55:20;;;;;;;17.42;9.43;;;8.60;99.90;;;;;;4775898;24;20426;-72
2022/10/20 03:57:46;;;;;;;17.02;8.80;;;8.50;99.90;;;;;;4786642;30;20035;-71
2022/10/20 04:00:12;;;;;;;18.80;9.50;;;8.50;99.90;;;;;;4786609;30;20023;-73
2022/10/20 04:02:43;;;;;;;14.38;8.77;;;8.50;99.90;;;;;;4786428;30;20428;-73
2022/10/20 04:05:14;;;;;;;19.60;9.38;;;8.50;99.90;;;;;;4769967;30;20031;-71
2022/10/20 04:07:41;;;;;;;16.98;9.57;;;8.50;99.90;;;;;;4786518;30;20112;-74
2022/10/20 04:10:08;;;;;;;15.65;9.00;;;8.40;99.90;;;;;;4786502;30;20049;-71
2022/10/20 04:12:34;;;;;;;17.17;9.30;;;8.40;99.90;;;;;;4786924;29;20038;-71
2022/10/20 04:15:00;;;;;;;22.00;10.38;;;8.30;99.90;;;;;;4789544;30;20031;-71
2022/10/20 04:17:25;;;;;;;18.70;10.38;;;8.30;99.90;;;;;;4789342;30;20045;-71
2022/10/20 04:19:51;;;;;;;18.77;9.90;;;8.30;99.90;;;;;;4789945;30;20035;-72
2022/10/20 04:22:17;;;;;;;19.85;10.80;;;8.20;99.90;;;;;;4784055;30;20489;-70
2022/10/20 04:24:43;;;;;;;19.35;12.27;;;8.30;99.90;;;;;;4780382;30;20027;-71
2022/10/20 04:27:09;;;;;;;19.92;11.90;;;8.30;99.90;;;;;;4786214;30;20067;-71
2022/10/20 04:29:35;;;;;;;20.17;12.07;;;8.20;99.90;;;;;;4788882;30;20142;-71
2022/10/20 04:32:01;;;;;;;19.70;10.93;;;8.20;99.90;;;;;;4789794;30;20024;-71
2022/10/20 04:34:27;;;;;;;21.02;12.60;;;8.20;99.90;;;;;;4789381;30;20036;-72
2022/10/20 04:36:53;;;;;;;19.05;10.82;;;8.20;99.90;;;;;;4772912;30;20031;-73
2022/10/20 04:39:19;;;;;;;21.15;12.25;;;8.20;99.90;;;;;;4789918;30;20383;-72
2022/10/20 04:41:45;;;;;;;18.85;11.55;;;8.20;99.90;;;;;;4789387;30;20047;-72
2022/10/20 04:44:11;;;;;;;20.67;11.75;;;8.20;99.90;;;;;;4789715;30;20043;-74
2022/10/20 04:46:37;;;;;;;19.85;12.10;;;8.10;99.90;;;;;;4789289;30;20031;-72
2022/10/20 04:49:04;;;;;;;20.65;12.27;;;8.20;99.90;;;;;;4789169;30;20044;-72
2022/10/20 04:51:29;;;;;;;20.52;12.05;;;8.20;99.90;;;;;;4788970;30;20027;-72
2022/10/20 04:53:55;;;;;;;19.63;12.80;;;8.10;99.90;;;;;;4789244;30;20143;-73
2022/10/20 04:56:22;;;;;;;22.08;11.18;;;8.10;99.90;;;;;;4789225;30;20142;-73
2022/10/20 04:58:53;;;;;;;19.85;10.73;;;8.10;99.90;;;;;;4789015;30;20043;-72
2022/10/20 05:01:20;;;;;;;17.25;9.75;;;8.10;99.90;;;;;;4789178;29;20039;-72
2022/10/20 05:03:46;;;;;;;18.02;10.68;;;8.10;99.90;;;;;;4788807;30;20023;-72
2022/10/20 05:06:17;;;;;;;15.35;10.05;;;8.00;99.90;;;;;;4788921;30;20027;-72
2022/10/20 05:08:45;;;;;;;19.30;10.60;;;8.00;99.90;;;;;;4788553;30;20043;-72
2022/10/20 05:11:12;;;;;;;22.23;10.48;;;8.00;99.90;;;;;;4788619;30;20394;-72
2022/10/20 05:13:39;;;;;;;18.20;10.38;;;8.00;99.90;;;;;;4788789;30;20498;-72
2022/10/20 05:16:05;;;;;;;22.65;10.50;;;8.00;99.90;;;;;;4788714;30;20062;-73
2022/10/20 05:18:32;;;;;;;19.95;11.43;;;8.10;99.90;;;;;;4788542;30;20035;-72
2022/10/20 05:20:58;;;;;;;18.08;11.25;;;8.30;99.90;;;;;;4788737;29;20055;-73
2022/10/20 05:23:24;;;;;;;21.33;11.05;;;8.60;99.90;;;;;;4788629;29;20031;-73
2022/10/20 05:25:50;;;;;;;20.98;11.60;;;8.70;99.90;;;;;;4788057;30;20084;-72
2022/10/20 05:28:16;;;;;;;23.13;11.75;;;9.00;99.90;;;;;;4788563;30;20039;-73
2022/10/20 05:30:42;;;;;;;20.38;12.65;;;9.00;99.90;;;;;;4788464;30;20051;-73
2022/10/20 05:33:08;;;;;;;26.05;13.95;;;9.30;99.90;;;;;;4788326;30;20027;-73
2022/10/20 05:35:34;;;;;;;23.63;12.73;;;9.50;99.90;;;;;;4788474;30;20360;-73
2022/10/20 05:38:00;;;;;;;20.13;11.60;;;10.00;99.90;;;;;;4788182;30;20114;-72
2022/10/20 05:40:26;;;;;;;20.65;11.23;;;10.40;99.90;;;;;;4788467;29;20402;-72
2022/10/20 05:42:52;;;;;;;20.85;10.57;;;10.30;99.90;;;;;;4788482;30;20027;-72
2022/10/20 05:45:17;;;;;;;20.08;10.50;;;9.90;99.90;;;;;;4788216;30;20046;-73
2022/10/20 05:47:43;;;;;;;17.52;9.88;;;9.80;99.90;;;;;;4788199;30;20031;-73
2022/10/20 05:50:09;;;;;;;22.42;10.85;;;9.50;99.90;;;;;;4788196;30;20509;-73
2022/10/20 05:52:35;;;;;;;16.15;9.07;;;9.50;99.90;;;;;;4788130;29;20051;-74
2022/10/20 05:55:02;;;;;;;22.67;10.52;;;9.40;99.90;;;;;;4787871;30;20146;-73
2022/10/20 05:57:28;;;;;;;19.67;11.40;;;9.60;99.90;;;;;;4787983;30;20063;-73
2022/10/20 05:59:54;;;;;;;18.95;10.65;;;9.50;99.90;;;;;;4788230;30;20097;-73
2022/10/20 06:02:21;;;;;;;17.20;9.80;;;9.50;99.90;;;;;;4787171;30;20449;-73
2022/10/20 06:04:46;;;;;;;21.13;10.27;;;9.50;99.90;;;;;;4787050;30;20067;-72
2022/10/20 06:07:12;;;;;;;16.63;8.95;;;9.50;99.90;;;;;;4787511;30;20035;-73
2022/10/20 06:09:39;;;;;;;23.30;9.90;;;9.50;99.90;;;;;;4788070;30;20097;-73
2022/10/20 06:12:05;;;;;;;15.18;9.02;;;9.60;99.90;;;;;;4787798;30;20103;-73
2022/10/20 06:14:31;;;;;;;16.92;8.77;;;9.60;99.90;;;;;;4787677;30;20027;-73
2022/10/20 06:16:57;;;;;;;16.70;8.23;;;9.60;99.90;;;;;;4788119;30;20035;-73
2022/10/20 06:19:24;;;;;;;14.43;7.78;;;9.70;99.90;;;;;;4787761;30;20019;-72
2022/10/20 06:21:51;;;;;;;17.08;7.68;;;9.80;99.90;;;;;;4787717;30;20035;-73
2022/10/20 06:24:18;;;;;;;13.95;7.78;;;10.00;99.90;;;;;;4787576;30;20031;-73
2022/10/20 06:26:44;;;;;;;15.68;8.27;;;10.10;99.90;;;;;;4787819;30;20471;-73
2022/10/20 06:29:13;;;;;;;14.82;7.68;;;10.20;99.90;;;;;;4787890;30;20054;-73
2022/10/20 06:31:44;;;;;;;17.80;7.88;;;10.30;99.90;;;;;;4774064;30;20083;-73
2022/10/20 06:34:14;;;;;;;14.25;7.70;;;10.20;99.90;;;;;;4787554;30;20039;-73
2022/10/20 06:36:41;;;;;;;13.93;7.88;;;10.20;99.90;;;;;;4787060;29;20042;-73
2022/10/20 06:39:10;;;;;;;12.60;7.00;;;10.40;99.90;;;;;;4787087;30;20031;-72
2022/10/20 06:41:36;;;;;;;17.35;7.13;;;10.40;99.90;;;;;;4787364;30;20035;-73
2022/10/20 06:44:02;;;;;;;16.83;7.38;;;10.40;99.90;;;;;;4787328;30;20383;-73
2022/10/20 06:46:30;;;;;;;11.80;6.90;;;10.30;99.90;;;;;;4787348;30;20028;-73
2022/10/20 06:48:58;;;;;;;14.48;6.85;;;10.40;99.90;;;;;;4787151;30;20035;-73
2022/10/20 06:51:24;;;;;;;16.80;8.18;;;10.40;99.90;;;;;;4786966;30;20449;-73
2022/10/20 06:53:51;;;;;;;12.95;6.45;;;10.70;99.90;;;;;;4787286;30;20027;-73
2022/10/20 06:56:21;;;;;;;22.83;8.10;;;10.80;99.90;;;;;;4786902;30;20551;-73
2022/10/20 06:58:49;;;;;;;15.45;8.05;;;10.90;99.90;;;;;;4786046;30;20362;-73
2022/10/20 07:01:22;;;;;;;15.65;7.40;;;11.10;99.90;;;;;;4786874;30;20035;-73
2022/10/20 07:03:49;;;;;;;17.20;8.57;;;11.10;99.90;;;;;;4786708;30;20039;-73
2022/10/20 07:06:18;;;;;;;15.13;7.38;;;11.20;99.90;;;;;;4786136;30;20518;-73
2022/10/20 07:08:45;;;;;;;13.60;7.70;;;11.30;99.90;;;;;;4786398;30;20165;-73
2022/10/20 07:11:13;;;;;;;14.23;7.65;;;11.30;99.90;;;;;;4786381;30;20031;-72
2022/10/20 07:13:39;;;;;;;16.77;7.22;;;11.20;99.90;;;;;;4785613;29;20119;-72
2022/10/20 07:16:07;;;;;;;17.25;8.30;;;11.30;99.90;;;;;;4786426;30;20027;-72
2022/10/20 07:18:35;;;;;;;13.13;7.32;;;11.50;99.90;;;;;;4786345;30;20483;-73
2022/10/20 07:21:06;;;;;;;15.63;7.15;;;11.50;99.90;;;;;;4785899;30;20058;-72
2022/10/20 07:23:33;;;;;;;15.73;7.70;;;11.60;99.90;;;;;;4786249;30;20035;-73
2022/10/20 07:26:20;;;;;;;19.13;8.18;;;11.50;99.90;;;;;;4787124;30;20081;-73
2022/10/20 07:28:52;;;;;;;17.50;7.03;;;11.70;99.90;;;;;;4786460;30;20035;-73
2022/10/20 07:31:20;;;;;;;13.55;8.43;;;11.70;99.90;;;;;;4786855;30;20028;-73
2022/10/20 07:33:47;;;;;;;12.38;6.68;;;11.80;99.90;;;;;;4786772;30;20360;-73
2022/10/20 07:36:22;;;;;;;14.43;6.57;;;11.80;99.90;;;;;;4786731;30;20514;-73
2022/10/20 07:38:50;;;;;;;13.95;6.93;;;11.90;99.90;;;;;;4783322;30;20031;-73
2022/10/20 07:41:16;;;;;;;13.55;6.43;;;12.00;99.90;;;;;;4785673;30;20577;-73
2022/10/20 07:43:43;;;;;;;11.18;5.93;;;12.10;99.90;;;;;;4786855;30;20386;-72
2022/10/20 07:46:10;;;;;;;11.10;5.70;;;12.20;99.90;;;;;;4786549;30;20028;-73
2022/10/20 07:48:36;;;;;;;16.15;5.93;;;12.30;99.90;;;;;;4788183;29;20036;-72
2022/10/20 07:51:26;;;;;;;10.55;6.00;;;12.50;99.90;;;;;;4790176;30;20039;-73
2022/10/20 07:53:53;;;;;;;14.60;6.18;;;12.60;99.90;;;;;;4784521;30;20027;-73
2022/10/20 07:56:19;;;;;;;15.75;7.22;;;12.50;99.90;;;;;;4789582;29;20059;-73
2022/10/20 07:58:46;;;;;;;10.77;6.05;;;12.70;99.90;;;;;;4773796;30;20043;-72
2022/10/20 08:01:12;;;;;;;14.10;6.32;;;12.70;99.90;;;;;;4789744;30;20036;-73
2022/10/20 08:03:38;;;;;;;11.30;6.05;;;12.90;99.90;;;;;;4789893;30;20031;-73
2022/10/20 08:06:04;;;;;;;11.15;5.53;;;13.10;99.90;;;;;;4789777;30;20032;-74
2022/10/20 08:08:31;;;;;;;16.40;6.05;;;13.30;99.90;;;;;;4789831;30;20066;-73
2022/10/20 08:10:57;;;;;;;10.15;5.18;;;13.40;99.90;;;;;;4789513;30;20039;-73
2022/10/20 08:13:24;;;;;;;9.23;4.95;;;13.40;99.90;;;;;;4789645;30;20030;-72
2022/10/20 08:15:50;;;;;;;9.70;5.25;;;13.60;99.90;;;;;;4789757;30;20035;-73
2022/10/20 08:18:16;;;;;;;12.30;5.80;;;13.60;99.90;;;;;;4789583;30;20038;-72
2022/10/20 08:20:42;;;;;;;10.35;5.63;;;13.80;99.90;;;;;;4789668;30;20070;-73
2022/10/20 08:23:08;;;;;;;11.00;5.00;;;13.90;99.90;;;;;;4789771;30;20123;-76
2022/10/20 08:25:34;;;;;;;9.10;4.78;;;13.90;99.90;;;;;;4789326;30;20039;-73
2022/10/20 08:28:00;;;;;;;7.53;4.15;;;13.90;99.90;;;;;;4789049;30;20035;-73
2022/10/20 08:30:26;;;;;;;7.88;4.13;;;14.00;99.90;;;;;;4789012;30;20062;-73
2022/10/20 08:32:53;;;;;;;9.77;4.47;;;14.20;99.90;;;;;;4789781;30;20092;-72
2022/10/20 08:35:20;;;;;;;7.85;4.15;;;14.30;99.90;;;;;;4788822;30;20023;-72
2022/10/20 08:37:46;;;;;;;7.78;3.78;;;14.20;99.90;;;;;;4788970;30;20128;-73
2022/10/20 08:40:30;;;;;;;7.60;4.13;;;14.40;99.90;;;;;;4789395;30;20023;-72
2022/10/20 08:42:56;;;;;;;12.20;4.07;;;14.40;99.90;;;;;;4789473;30;20031;-72
2022/10/20 08:45:25;;;;;;;6.22;4.13;;;14.60;99.90;;;;;;4789297;30;20031;-72
2022/10/20 08:47:54;;;;;;;9.10;5.05;;;14.60;99.90;;;;;;4758479;30;20040;-73
2022/10/20 08:50:21;;;;;;;7.28;3.88;;;14.70;99.90;;;;;;4789200;30;20035;-73
2022/10/20 08:52:52;;;;;;;9.93;4.97;;;14.80;99.90;;;;;;4789186;30;20166;-73
2022/10/20 08:55:32;;;;;;;12.45;5.88;;;14.90;99.90;;;;;;4789207;30;20137;-73
2022/10/20 08:58:10;;;;;;;7.50;4.53;;;14.60;99.90;;;;;;4789174;30;20408;-72
2022/10/20 09:00:37;;;;;;;20.63;5.80;;;14.70;99.90;;;;;;4789130;30;20137;-72
2022/10/20 09:03:15;;;;;;;11.95;4.68;;;14.90;99.90;;;;;;4788909;30;20045;-73
2022/10/20 09:05:44;;;;;;;8.63;4.70;;;15.00;99.90;;;;;;4787000;30;20039;-73
2022/10/20 09:08:10;;;;;;;11.95;4.38;;;14.80;99.90;;;;;;4784485;30;20031;-72
2022/10/20 09:10:52;;;;;;;10.00;4.78;;;14.80;99.90;;;;;;4787015;30;20099;-73
2022/10/20 09:13:27;;;;;;;12.18;4.60;;;14.70;99.90;;;;;;4788862;30;20092;-72
2022/10/20 09:15:59;;;;;;;7.72;4.22;;;14.80;99.90;;;;;;4788710;30;20035;-72
2022/10/20 09:18:25;;;;;;;11.05;4.88;;;14.60;99.90;;;;;;4788606;30;20111;-72
2022/10/20 09:20:56;;;;;;;14.05;4.80;;;14.80;99.90;;;;;;4788807;30;20031;-72
2022/10/20 09:23:42;;;;;;;15.10;4.85;;;14.70;99.90;;;;;;4788768;30;20039;-72
2022/10/20 09:26:31;;;;;;;6.72;4.45;;;14.70;99.90;;;;;;4788548;30;20091;-72
2022/10/20 09:29:10;;;;;;;9.57;4.75;;;14.40;99.90;;;;;;4788329;30;20031;-73
2022/10/20 09:31:38;;;;;;;12.43;5.30;;;14.70;99.90;;;;;;4788009;30;20035;-72
2022/10/20 09:34:30;;;;;;;10.77;5.57;;;14.70;99.90;;;;;;4788207;30;20039;-72
2022/10/20 09:37:05;;;;;;;8.43;4.82;;;14.80;99.90;;;;;;4788271;30;20035;-73
2022/10/20 09:39:48;;;;;;;10.48;5.05;;;15.00;99.90;;;;;;4788191;30;20035;-72
2022/10/20 09:42:22;;;;;;;11.18;5.60;;;15.20;99.90;;;;;;4788473;30;20542;-73
2022/10/20 09:45:00;;;;;;;10.07;5.68;;;15.30;99.90;;;;;;4787859;30;20453;-72
2022/10/20 09:47:27;;;;;;;15.25;5.50;;;15.50;99.90;;;;;;4788043;30;20031;-72
2022/10/20 09:50:05;;;;;;;8.73;5.18;;;15.40;99.90;;;;;;4787666;30;20300;-72
2022/10/20 09:52:46;;;;;;;11.40;5.57;;;15.50;99.90;;;;;;4787962;30;20031;-72
2022/10/20 09:55:36;;;;;;;9.88;4.80;;;15.50;99.90;;;;;;4787826;30;20032;-72
2022/10/20 09:58:04;;;;;;;19.67;4.15;;;15.50;99.90;;;;;;4732310;30;20156;-73
2022/10/20 10:00:36;;;;;;;7.93;3.78;;;15.40;99.90;;;;;;4732471;30;20051;-73
2022/10/20 10:03:08;;;;;;;12.70;4.95;;;15.30;99.90;;;;;;4732129;30;20048;-73
2022/10/20 10:05:34;;;;;;;15.70;4.82;;;15.30;99.90;;;;;;4730595;30;20135;-73
2022/10/20 10:08:00;;;;;;;14.00;4.50;;;15.50;99.90;;;;;;4721652;30;20609;-70
2022/10/20 10:10:29;;;;;;;9.75;4.53;;;15.40;99.90;;;;;;4731848;30;20049;-72
2022/10/20 10:12:59;;;;;;;11.98;4.68;;;15.40;99.90;;;;;;4732336;30;20035;-72
2022/10/20 10:15:27;;;;;;;9.57;4.20;;;15.20;99.90;;;;;;4732236;30;20041;-72
2022/10/20 10:17:54;;;;;;;10.52;4.47;;;15.30;99.90;;;;;;4732112;30;20028;-73
2022/10/20 10:20:32;;;;;;;13.00;3.85;;;15.40;99.90;;;;;;4731987;30;20047;-72
2022/10/20 10:23:29;;;;;;;10.52;3.67;;;15.40;99.90;;;;;;4731077;30;20483;-72
2022/10/20 10:25:55;;;;;;;8.85;3.67;;;15.40;99.90;;;;;;4679183;30;20628;-73
2022/10/20 10:28:33;;;;;;;7.78;3.70;;;15.50;99.90;;;;;;4679783;30;20085;-73
2022/10/20 10:31:11;;;;;;;8.15;3.25;;;15.80;99.90;;;;;;4679591;30;20112;-72
2022/10/20 10:33:37;;;;;;;6.30;3.30;;;16.00;99.90;;;;;;4679962;30;20041;-73
2022/10/20 10:36:14;;;;;;;8.77;4.05;;;16.10;99.90;;;;;;4711633;30;20051;-73
2022/10/20 10:38:39;;;;;;;9.70;3.45;;;15.90;99.90;;;;;;4713462;30;20121;-72
2022/10/20 10:41:30;;;;;;;6.30;3.92;;;16.00;99.90;;;;;;4714314;30;20485;-72
2022/10/20 10:44:20;;;;;;;9.10;3.90;;;16.10;99.90;;;;;;4714273;30;20045;-73
2022/10/20 10:47:11;;;;;;;6.72;3.38;;;16.10;99.90;;;;;;4714031;30;20040;-73
2022/10/20 10:49:46;;;;;;;6.18;3.85;;;16.00;99.90;;;;;;4679513;30;20569;-73
2022/10/20 10:52:24;;;;;;;12.70;4.63;;;16.20;99.90;;;;;;4679632;30;20049;-71
2022/10/20 10:55:41;;;;;;;11.43;4.03;;;16.30;99.90;;;;;;4679277;30;20050;-71
2022/10/20 10:58:37;;;;;;;9.75;3.80;;;16.40;99.90;;;;;;4644348;30;20493;-71
2022/10/20 11:01:58;;;;;;;11.70;3.53;;;16.30;99.90;;;;;;4649869;30;20084;-74
2022/10/20 11:05:03;;;;;;;14.38;4.13;;;16.40;99.90;;;;;;4688235;30;20042;-74
2022/10/20 11:08:20;;;;;;;8.57;3.55;;;16.40;99.90;;;;;;4694107;30;20060;-70
2022/10/20 11:10:49;;;;;;;8.32;3.90;;;16.30;99.90;;;;;;4692630;30;20460;-71
2022/10/20 11:13:30;;;;;;;8.90;3.28;;;16.40;99.90;;;;;;4692540;30;20049;-70
2022/10/20 11:16:14;;;;;;;7.28;2.97;;;16.50;99.90;;;;;;4688272;30;20478;-72
2022/10/20 11:19:17;;;;;;;6.07;2.97;;;16.50;99.90;;;;;;4689101;30;20073;-74
2022/10/20 11:21:58;;;;;;;6.00;3.00;;;16.50;99.90;;;;;;4689071;30;20049;-71
2022/10/20 11:24:37;;;;;;;6.50;2.55;;;16.40;99.90;;;;;;4699382;30;20040;-71
2022/10/20 11:27:24;;;;;;;4.00;2.30;;;16.40;99.90;;;;;;4722105;30;20049;-73
2022/10/20 11:30:07;;;;;;;8.00;3.10;;;16.40;99.90;;;;;;4729332;30;20086;-71
2022/10/20 11:32:38;;;;;;;8.07;3.40;;;16.40;99.90;;;;;;4733720;29;20127;-71
2022/10/20 11:35:24;;;;;;;6.75;3.38;;;16.40;99.90;;;;;;4790333;30;20113;-71
2022/10/20 11:38:31;;;;;;;7.22;3.80;;;16.30;99.90;;;;;;4777380;29;20130;-72
2022/10/20 11:41:19;;;;;;;8.45;3.88;;;16.50;99.90;;;;;;4788668;30;20032;-71
2022/10/20 11:43:58;;;;;;;7.93;3.22;;;16.60;99.90;;;;;;4780698;30;20066;-71
2022/10/20 11:46:33;;;;;;;6.25;3.13;;;16.70;99.90;;;;;;4789938;30;20110;-71
2022/10/20 11:48:59;;;;;;;5.68;3.03;;;16.70;99.90;;;;;;4790273;30;20089;-72
2022/10/20 11:51:56;;;;;;;7.70;3.38;;;16.70;99.90;;;;;;4789003;30;20027;-71
2022/10/20 11:54:28;;;;;;;5.40;2.92;;;16.70;99.90;;;;;;4709336;30;20049;-71
2022/10/20 11:57:31;;;;;;;6.55;3.63;;;16.60;99.90;;;;;;4701063;30;20575;-72
2022/10/20 12:00:19;;;;;;;5.45;3.22;;;16.60;99.90;;;;;;4696758;30;20052;-71
2022/10/20 12:02:57;;;;;;;7.70;4.03;;;16.60;99.90;;;;;;4706029;30;20041;-71
2022/10/20 12:05:50;;;;;;;5.13;3.15;;;16.50;99.90;;;;;;4703198;30;20091;-71
2022/10/20 12:08:31;;;;;;;;;;;16.60;99.90;;;;;;4704128;30;20081;-71
2022/10/20 12:11:29;;;;;;;7.47;3.50;;;16.60;99.90;;;;;;4712801;30;19930;-71
2022/10/20 12:14:13;;;;;;;9.35;3.33;;;16.80;99.90;;;;;;4716796;30;20535;-71
2022/10/20 12:16:51;;;;;;;9.20;4.00;;;16.80;99.90;;;;;;4716276;30;20076;-71
2022/10/20 12:19:23;;;;;;;8.25;3.50;;;16.80;99.90;;;;;;4706199;30;20180;-71
2022/10/20 12:21:56;;;;;;;8.20;3.33;;;16.70;99.90;;;;;;4705012;30;20081;-72
2022/10/20 12:25:02;;;;;;;5.97;2.58;;;16.70;99.90;;;;;;4703878;30;20102;-71
2022/10/20 12:27:29;;;;;;;6.10;2.75;;;16.80;99.90;;;;;;4716074;30;20458;-71
2022/10/20 12:29:57;;;;;;;5.63;3.55;;;16.80;99.90;;;;;;4705568;30;20076;-71
2022/10/20 12:32:54;;;;;;;5.35;3.30;;;16.80;99.90;;;;;;4779432;30;20491;-70
2022/10/20 12:35:23;;;;;;;7.30;2.95;;;16.80;99.90;;;;;;4789229;30;20038;-71
2022/10/20 12:38:03;;;;;;;4.75;3.08;;;16.80;99.90;;;;;;4787388;30;20403;-71
2022/10/20 12:40:56;;;;;;;5.47;2.55;;;16.80;99.90;;;;;;4789030;30;20045;-71
2022/10/20 12:43:50;;;;;;;15.77;2.63;;;16.80;99.90;;;;;;4787570;30;20031;-71
2022/10/20 12:46:24;;;;;;;6.50;2.53;;;16.80;99.90;;;;;;4788536;30;20135;-71
2022/10/20 12:48:56;;;;;;;5.72;3.40;;;16.70;99.90;;;;;;4787920;30;20062;-70
2022/10/20 12:51:50;;;;;;;9.18;3.30;;;16.80;99.90;;;;;;4771550;30;20046;-71
2022/10/20 12:54:27;;;;;;;4.50;2.72;;;16.80;99.90;;;;;;4788698;30;20066;-72
2022/10/20 12:57:01;;;;;;;5.18;2.78;;;16.80;99.90;;;;;;4788685;30;20066;-73
2022/10/20 12:59:30;;;;;;;8.70;2.63;;;16.80;99.90;;;;;;4787010;30;20071;-71
2022/10/20 13:02:08;;;;;;;4.95;2.30;;;16.70;99.90;;;;;;4788441;30;20091;-71
2022/10/20 13:05:10;;;;;;;9.55;3.22;;;16.90;99.90;;;;;;4788326;30;20091;-72
2022/10/20 13:07:46;;;;;;;10.38;3.38;;;16.90;99.90;;;;;;4788536;30;20123;-72